Gassville, Arkansas
Current Conditions -  °F | °C
As of 3:35 PM on Wednesday 17 Dec 2014 (Local Time) from KFLP Reporting Station
Few Clouds Few Clouds  
Wind Chill: 36°   Ceiling: Unl
Heat Index: 36°   Visibility: 10mi
Dew Point: 27°   Wind: 0mph
Humidity: 70%   Direction: NA
Pressure: 30.25"   Gusts: NA
Location:  36.28°N, 92.49°W
Report Text: KFLP 172135Z 00000KT 10SM FEW070 02/M03 A3025 RMK AO1
Loading
Personal Weather Stations






























Interactive Weather Map New forecast layout! Learn more

10-Day Weather Forecast

Advertisements
Track Severe Weather on mobile